createdAt,value
2023-03-05T00:00:38.572Z,55.86613
2023-03-05T00:05:40.311Z,58.77052
2023-03-05T00:10:42.101Z,59.53295
2023-03-05T00:15:43.807Z,59.99874
2023-03-05T00:20:45.447Z,60.07772
2023-03-05T00:25:47.221Z,56.83738
2023-03-05T00:30:48.879Z,56.18604
2023-03-05T00:35:50.633Z,55.76709
2023-03-05T00:40:52.227Z,58.77961
2023-03-05T00:45:53.967Z,58.67558
2023-03-05T00:50:55.558Z,59.13323
2023-03-05T00:55:57.291Z,57.53313
2023-03-05T01:00:58.933Z,58.73123
2023-03-05T01:06:00.651Z,58.35492
2023-03-05T01:11:02.482Z,58.76031
2023-03-05T01:16:04.151Z,59.12107
2023-03-05T01:21:05.964Z,58.13615
2023-03-05T01:26:07.610Z,59.14288
2023-03-05T01:31:09.294Z,59.57017
2023-03-05T01:36:10.970Z,58.78125
2023-03-05T01:41:12.565Z,59.01437
2023-03-05T01:46:14.096Z,60.26108
2023-03-05T01:51:15.781Z,63.11752
2023-03-05T01:56:17.414Z,64.6561
2023-03-05T02:01:19.119Z,65.28246
2023-03-05T02:06:20.790Z,64.10248
2023-03-05T02:11:22.391Z,62.59087
2023-03-05T02:16:24.022Z,62.86772
2023-03-05T02:21:25.659Z,61.4232
2023-03-05T02:26:27.519Z,64.41724
2023-03-05T02:31:29.209Z,66.74478
2023-03-05T02:36:30.897Z,66.52486
2023-03-05T02:41:32.543Z,63.00459
2023-03-05T02:46:34.187Z,66.7667
2023-03-05T02:51:35.818Z,67.72464
2023-03-05T02:56:37.426Z,67.21523
2023-03-05T03:01:39.166Z,65.8463
2023-03-05T03:06:40.932Z,66.02328
2023-03-05T03:11:42.574Z,65.25334
2023-03-05T03:16:44.462Z,68.41536
2023-03-05T03:21:46.100Z,65.4177
2023-03-05T03:26:47.755Z,65.05186
2023-03-05T03:31:49.890Z,68.67807
2023-03-05T03:36:51.545Z,66.57626
2023-03-05T03:41:53.203Z,65.05544
2023-03-05T03:46:54.805Z,65.25976
2023-03-05T03:51:56.455Z,66.80606
2023-03-05T03:56:58.198Z,70.93247
2023-03-05T04:01:59.863Z,70.83861
2023-03-05T04:07:01.432Z,67.55932
2023-03-05T04:12:03.224Z,66.51847
2023-03-05T04:17:04.903Z,64.99547
2023-03-05T04:22:06.667Z,65.76246
2023-03-05T04:27:08.296Z,67.33991
2023-03-05T04:32:10.181Z,66.6452
2023-03-05T04:37:11.837Z,68.29017
2023-03-05T04:42:13.451Z,70.49607
2023-03-05T04:47:15.085Z,69.96434
2023-03-05T04:52:16.695Z,66.49535
2023-03-05T04:57:18.456Z,66.92008
2023-03-05T05:02:20.109Z,65.40382
2023-03-05T05:07:21.790Z,64.82019
2023-03-05T05:12:23.410Z,65.09526
2023-03-05T05:17:25.109Z,67.51012
2023-03-05T05:22:26.736Z,70.05605
2023-03-05T05:27:28.453Z,69.61373
2023-03-05T05:32:30.224Z,72.26873
2023-03-05T05:37:31.908Z,69.61429
2023-03-05T05:42:33.570Z,68.28342
2023-03-05T05:47:35.176Z,67.19301
2023-03-05T05:52:36.784Z,67.98471
2023-03-05T05:57:38.489Z,69.4965
2023-03-05T06:02:40.460Z,66.9016
2023-03-05T06:07:42.074Z,68.89279
2023-03-05T06:12:43.710Z,64.99684
2023-03-05T06:17:45.308Z,65.98689
2023-03-05T06:22:46.975Z,66.61052
2023-03-05T06:27:48.570Z,67.09417
2023-03-05T06:32:50.400Z,69.46361
2023-03-05T06:37:52.729Z,71.14503
2023-03-05T06:42:54.352Z,71.46761
2023-03-05T06:47:56.655Z,70.17229
2023-03-05T06:52:58.287Z,72.31424
2023-03-05T06:57:59.957Z,72.48012
2023-03-05T07:03:01.603Z,69.63992
2023-03-05T07:08:03.239Z,69.02631
2023-03-05T07:13:04.947Z,67.53469
2023-03-05T07:18:06.579Z,68.82092
2023-03-05T07:23:08.351Z,66.5643
2023-03-05T07:28:10.043Z,69.95793
2023-03-05T07:33:11.763Z,69.98343
2023-03-05T07:38:13.457Z,67.44683
2023-03-05T07:43:15.068Z,68.46204
2023-03-05T07:48:16.912Z,68.17834
2023-03-05T07:53:18.500Z,68.62966
2023-03-05T07:58:20.141Z,69.23266
2023-03-05T08:03:21.783Z,69.27464
2023-03-05T08:08:23.405Z,68.05943
2023-03-05T08:13:25.086Z,66.71578
2023-03-05T08:18:26.826Z,68.5429
2023-03-05T08:23:28.958Z,68.69584
2023-03-05T08:28:32.016Z,68.51719
2023-03-05T08:33:35.480Z,69.49053
2023-03-05T08:38:37.135Z,68.80878
2023-03-05T08:43:38.902Z,73.21085
2023-03-05T08:48:40.480Z,73.35237
2023-03-05T08:53:42.297Z,73.37845
2023-03-05T08:58:43.930Z,72.77974
2023-03-05T09:03:45.568Z,68.57898
2023-03-05T09:08:47.214Z,68.22693
2023-03-05T09:13:49.030Z,69.32335
2023-03-05T09:18:50.838Z,67.28888
2023-03-05T09:23:52.428Z,67.13805
2023-03-05T09:28:54.114Z,66.12203
2023-03-05T09:33:55.723Z,66.78796
2023-03-05T09:38:57.478Z,67.49224
2023-03-05T09:43:59.123Z,66.53898
2023-03-05T09:49:00.960Z,68.81423
2023-03-05T09:54:03.126Z,67.96931
2023-03-05T09:59:04.936Z,68.50991
2023-03-05T10:04:06.605Z,67.08125
2023-03-05T10:09:08.250Z,65.40846
2023-03-05T10:14:09.879Z,66.53442
2023-03-05T10:19:11.760Z,66.70114
2023-03-05T10:24:13.392Z,68.62261
2023-03-05T10:29:15.032Z,68.4823
2023-03-05T10:34:16.626Z,67.74655
2023-03-05T10:39:18.286Z,67.9698
2023-03-05T10:44:19.909Z,65.89403
2023-03-05T10:49:21.806Z,68.1525
2023-03-05T10:54:23.552Z,68.2574
2023-03-05T10:59:25.445Z,70.04088
2023-03-05T11:04:27.089Z,69.95351
2023-03-05T11:09:28.733Z,70.49296
2023-03-05T11:14:30.315Z,67.99898
2023-03-05T11:19:31.955Z,65.25233
2023-03-05T11:24:33.527Z,65.94413
2023-03-05T11:29:35.225Z,65.94503
2023-03-05T11:34:36.834Z,66.48207
2023-03-05T11:39:38.475Z,69.0124
2023-03-05T11:44:40.231Z,66.4353
2023-03-05T11:49:41.830Z,66.90109
2023-03-05T11:54:43.557Z,66.80994
2023-03-05T11:59:45.293Z,67.1033
2023-03-05T12:04:46.860Z,65.64925
2023-03-05T12:09:48.863Z,68.86817
2023-03-05T12:14:50.574Z,71.69254
2023-03-05T12:19:52.171Z,69.60951
2023-03-05T12:24:53.833Z,67.02729
2023-03-05T12:29:55.798Z,66.21335
2023-03-05T12:34:57.442Z,67.3681
2023-03-05T12:39:59.063Z,67.49943
2023-03-05T12:45:00.794Z,66.67428
2023-03-05T12:50:02.436Z,66.24145
2023-03-05T12:55:04.094Z,65.19365
2023-03-05T13:00:05.790Z,66.74258
2023-03-05T13:05:07.377Z,67.33851
2023-03-05T13:10:09.073Z,67.9181
2023-03-05T13:15:10.762Z,67.873
2023-03-05T13:20:12.569Z,70.28847
2023-03-05T13:25:14.154Z,68.94763
2023-03-05T13:30:15.827Z,69.7153
2023-03-05T13:35:17.505Z,66.08781
2023-03-05T13:40:19.165Z,67.36743
2023-03-05T13:45:20.883Z,71.46031
2023-03-05T13:50:22.501Z,72.59418
2023-03-05T13:55:24.103Z,68.56927
2023-03-05T14:00:25.771Z,70.8527
2023-03-05T14:05:27.630Z,69.30208
2023-03-05T14:10:29.324Z,68.94368
2023-03-05T14:15:31.044Z,66.91897
2023-03-05T14:20:32.761Z,66.66159
2023-03-05T14:25:34.367Z,67.09246
2023-03-05T14:30:36.207Z,68.72187
2023-03-05T14:35:38.189Z,66.46949
2023-03-05T14:40:39.833Z,67.27803
2023-03-05T14:45:41.620Z,69.2001
2023-03-05T14:50:43.257Z,67.74134
2023-03-05T14:55:44.856Z,66.77213
2023-03-05T15:00:46.646Z,68.24665
2023-03-05T15:05:48.396Z,68.13562
2023-03-05T15:10:50.089Z,67.39768
2023-03-05T15:15:51.846Z,67.23619
2023-03-05T15:20:53.553Z,66.08877
2023-03-05T15:25:55.168Z,68.43304
2023-03-05T15:30:58.254Z,66.67408
2023-03-05T15:36:01.996Z,64.30903
2023-03-05T15:41:03.634Z,64.20642
2023-03-05T15:46:05.451Z,63.33638
2023-03-05T15:51:07.185Z,66.50794
2023-03-05T15:56:08.808Z,65.05666
2023-03-05T16:01:10.646Z,65.09865
2023-03-05T16:06:12.277Z,63.60982
2023-03-05T16:11:13.896Z,64.3275
2023-03-05T16:16:15.872Z,62.13486
2023-03-05T16:21:17.575Z,63.54706
2023-03-05T16:26:19.178Z,63.57013
2023-03-05T16:31:20.954Z,62.44282
2023-03-05T16:36:22.612Z,63.3336
2023-03-05T16:41:24.528Z,63.59232
2023-03-05T16:46:26.408Z,61.6433
2023-03-05T16:51:28.062Z,61.50876
2023-03-05T16:56:29.842Z,61.57997
2023-03-05T17:01:31.593Z,61.61393
2023-03-05T17:06:33.186Z,63.28015
2023-03-05T17:11:34.847Z,62.57091
2023-03-05T17:16:36.575Z,63.3506
2023-03-05T17:21:40.043Z,61.81379
2023-03-05T17:26:43.094Z,62.9386
2023-03-05T17:31:44.835Z,62.79955
2023-03-05T17:36:46.440Z,59.55326
2023-03-05T17:41:48.129Z,59.63533
2023-03-05T17:46:49.858Z,63.82249
2023-03-05T17:51:51.488Z,60.16641
2023-03-05T17:56:53.239Z,60.87337
2023-03-05T18:01:55.220Z,62.64522
2023-03-05T18:06:56.850Z,61.7209
2023-03-05T18:11:58.611Z,62.39543
2023-03-05T18:17:00.278Z,58.88006
2023-03-05T18:22:02.209Z,58.77509
2023-03-05T18:27:03.815Z,56.80685
2023-03-05T18:32:05.580Z,57.82153
2023-03-05T18:37:07.217Z,57.70697
2023-03-05T18:42:09.874Z,57.54879
2023-03-05T18:47:11.460Z,56.48764
2023-03-05T18:52:13.023Z,58.03577
2023-03-05T18:57:14.717Z,59.50566
2023-03-05T19:02:16.455Z,60.83587
2023-03-05T19:07:18.132Z,61.2951
2023-03-05T19:12:19.991Z,60.62542
2023-03-05T19:17:21.615Z,60.27093
2023-03-05T19:22:23.251Z,57.93944
2023-03-05T19:27:24.756Z,59.30496
2023-03-05T19:32:26.542Z,58.99005
2023-03-05T19:37:28.210Z,59.18062
2023-03-05T19:42:29.948Z,60.84677
2023-03-05T19:47:31.623Z,58.66326
2023-03-05T19:52:33.251Z,60.76253
2023-03-05T19:57:34.843Z,59.93055
2023-03-05T20:02:36.693Z,60.4464
2023-03-05T20:07:38.411Z,56.45626
2023-03-05T20:12:40.078Z,57.59466
2023-03-05T20:17:41.797Z,58.15825
2023-03-05T20:22:43.418Z,58.04136
2023-03-05T20:27:45.021Z,57.16507
2023-03-05T20:32:46.700Z,56.07217
2023-03-05T20:37:48.339Z,54.79243
2023-03-05T20:42:49.982Z,53.75357
2023-03-05T20:47:51.678Z,54.80803
2023-03-05T20:52:53.258Z,53.53465
2023-03-05T20:57:54.890Z,52.63998
2023-03-05T21:02:56.607Z,54.84372
2023-03-05T21:07:58.323Z,52.69743
2023-03-05T21:13:00.976Z,53.64013
2023-03-05T21:18:02.948Z,55.52237
2023-03-05T21:23:04.592Z,53.67344
2023-03-05T21:28:06.169Z,53.94679
2023-03-05T21:33:07.851Z,58.69554
2023-03-05T21:38:09.481Z,60.53391
2023-03-05T21:43:11.112Z,60.74875
2023-03-05T21:48:12.900Z,61.17971
2023-03-05T21:53:14.501Z,63.42759
2023-03-05T21:58:16.154Z,63.53508
2023-03-05T22:03:17.881Z,62.92023
2023-03-05T22:08:19.483Z,62.71725
2023-03-05T22:13:21.113Z,62.59662
2023-03-05T22:18:22.745Z,62.94428
2023-03-05T22:23:24.411Z,63.15861
2023-03-05T22:28:26.033Z,64.80172
2023-03-05T22:33:27.732Z,71.1527
2023-03-05T22:38:29.314Z,73.65173
2023-03-05T22:43:30.974Z,74.50809
2023-03-05T22:48:32.712Z,70.95731
2023-03-05T22:53:34.494Z,74.58568
2023-03-05T22:58:36.182Z,74.54727
2023-03-05T23:03:38.035Z,75.94746
2023-03-05T23:08:39.689Z,74.06529
2023-03-05T23:13:41.518Z,73.43974
2023-03-05T23:18:43.215Z,72.2463
2023-03-05T23:23:44.843Z,74.38057
2023-03-05T23:28:46.419Z,74.5969
2023-03-05T23:33:48.287Z,73.63649
2023-03-05T23:38:49.891Z,73.83421
2023-03-05T23:43:51.482Z,70.64329
2023-03-05T23:48:53.231Z,72.23451
2023-03-05T23:53:55.204Z,71.51795
2023-03-05T23:58:56.811Z,70.17622
